Aeroporto :
LOGIN :

Iscrizione | Disclaimer

   EN    FR    IT 

 










Sommario :    VFR   VFR Marginale   IFR   IFR Intensivo   IFR Molto Intensivo
Visibilità : 
Base nubi : 
>= 8 km
>= 3000ft
5 / 8 km
1000 / 3000 ft
1500m / 5 km
500 / 1000 ft
800 / 1500m
200 / 500 ft
< 800m
< 200 ft
Simboli :   Temporali  Nebbia  Neve Forte  Precipitazioni Forti  Vento > 20 kt
SIGMETs :   Varie  Temporali  Ghiacco  Turbolenza  Onda orograficha  Ceneri Vulcaniche






- Altitudine del aeroporto : 302 ft
- Codice IATA : CGN


EDDK - Cologne Bonn

ULTIMO METAR :
  • 100020Z VRB02KT CAVOK 09/05 Q1025 NOSIG

METARs OBSOLETI :
  • 092350Z VRB02KT CAVOK 08/04 Q1025 NOSIG
  • 092320Z 05003KT CAVOK 09/05 Q1025 NOSIG
  • 092250Z 13004KT CAVOK 10/05 Q1026 NOSIG
  • 092220Z 06004KT CAVOK 11/05 Q1025 NOSIG
  • 092150Z 05005KT CAVOK 13/05 Q1025 NOSIG

TAF TAF EDDK
Valido dal 10 a 00 ore il 11 a 06 ore UTC


092300Z 1000/1106 07003KT CAVOK
BECMG 1008/1011 35007KT
BECMG 1022/1101 10003KT



MetMap, La meteo Aeronautica in un colpo d'occhio ! - Copyright ORBIFLY Dicembre 2007 - Disclaimer

ORBIFLY MET'MAP TEAM :

Programmazione e sviluppo : Alexandra Zaïnal
Concezione : Baudouin d'Aumeries
Aiuto per la programmazione : Marc-Olivier Méhu
Supporto tecnico e logistico : Manuel Goepfert
Aiuto per la traduzione : Arnaldo La Scala

Contatto : metmap@orbifly.com




FONTI E CREDITI :

   NOAA